Time;durP1;ratioP1;P1;durP2;ratioP2;P2;SDS_P1;SDS_P2;PMS_P1;PMS_P2;Temp;Humidity;BMP_temperature;BMP_pressure;BME280_temperature;BME280_humidity;BME280_pressure;Samples;Min_cycle;Max_cycle;Signal;HPM_P1;HPM_P2
2021/03/05 00:00:38;;;;;;;8.57;1.80;;;-0.70;79.70;;;;;;5057963;28;20033;-63
2021/03/05 00:03:04;;;;;;;7.00;1.30;;;-0.70;79.70;;;;;;5062711;28;20515;-64
2021/03/05 00:05:31;;;;;;;6.07;1.30;;;-0.70;79.90;;;;;;5062146;28;20045;-64
2021/03/05 00:07:57;;;;;;;6.20;1.30;;;-0.70;80.10;;;;;;5062545;28;20400;-64
2021/03/05 00:10:26;;;;;;;6.63;1.43;;;-0.70;80.10;;;;;;5061226;28;20036;-64
2021/03/05 00:12:52;;;;;;;6.83;1.13;;;-0.70;80.10;;;;;;5044557;28;20040;-64
2021/03/05 00:15:22;;;;;;;8.33;1.30;;;-0.80;80.20;;;;;;5057469;28;20488;-64
2021/03/05 00:17:48;;;;;;;9.18;1.00;;;-0.80;80.40;;;;;;5051912;28;20041;-64
2021/03/05 00:20:20;;;;;;;7.40;1.40;;;-0.80;80.60;;;;;;5052332;28;20040;-64
2021/03/05 00:22:46;;;;;;;5.07;1.23;;;-0.80;80.80;;;;;;5051346;28;20512;-64
2021/03/05 00:25:12;;;;;;;8.40;1.30;;;-0.80;80.80;;;;;;5034623;28;20063;-64
2021/03/05 00:27:37;;;;;;;6.07;1.00;;;-0.80;80.80;;;;;;5052287;28;20064;-64
2021/03/05 00:30:07;;;;;;;6.07;1.10;;;-0.80;80.80;;;;;;5051492;28;20045;-64
2021/03/05 00:32:35;;;;;;;9.57;1.30;;;-0.80;80.80;;;;;;5034283;28;20432;-64
2021/03/05 00:35:01;;;;;;;7.80;1.40;;;-0.90;80.90;;;;;;5050982;28;20057;-64
2021/03/05 00:37:27;;;;;;;6.77;1.40;;;-0.90;81.10;;;;;;5051388;28;20035;-64
2021/03/05 00:39:52;;;;;;;6.93;1.30;;;-0.90;81.20;;;;;;5051791;28;20108;-64
2021/03/05 00:42:18;;;;;;;11.70;1.53;;;-1.00;81.20;;;;;;5051152;28;20405;-64
2021/03/05 00:44:44;;;;;;;7.53;1.63;;;-1.00;81.30;;;;;;5034172;28;20119;-64
2021/03/05 00:47:09;;;;;;;7.20;1.20;;;-1.00;81.30;;;;;;5051482;28;20129;-64
2021/03/05 00:49:35;;;;;;;10.07;1.70;;;-1.00;81.40;;;;;;5051808;28;20071;-64
2021/03/05 00:52:04;;;;;;;8.17;1.30;;;-1.00;81.50;;;;;;5051512;28;20041;-64
2021/03/05 00:54:30;;;;;;;6.77;1.53;;;-1.00;81.60;;;;;;5033893;28;20036;-65
2021/03/05 00:56:57;;;;;;;5.73;1.10;;;-1.00;81.60;;;;;;5033731;28;20033;-64
2021/03/05 00:59:23;;;;;;;7.47;1.40;;;-1.10;81.50;;;;;;5051205;28;20036;-64
2021/03/05 01:01:49;;;;;;;5.27;1.20;;;-1.10;81.70;;;;;;5033384;28;20025;-64
2021/03/05 01:04:14;;;;;;;6.43;1.10;;;-1.10;81.90;;;;;;5017496;28;20375;-64
2021/03/05 01:06:46;;;;;;;10.40;1.60;;;-1.10;82.00;;;;;;5017851;28;20040;-64
2021/03/05 01:09:17;;;;;;;;;;;-1.10;82.20;;;;;;5034157;28;20040;-64
2021/03/05 01:11:42;;;;;;;6.73;1.57;;;-1.10;82.70;;;;;;5050549;28;19913;-64
2021/03/05 01:14:08;;;;;;;5.60;1.40;;;-1.10;82.30;;;;;;5051304;28;20044;-64
2021/03/05 01:16:34;;;;;;;7.30;1.57;;;-1.10;82.60;;;;;;5050969;28;20044;-64
2021/03/05 01:18:59;;;;;;;6.23;1.40;;;-1.00;82.60;;;;;;5053640;28;20555;-64
2021/03/05 01:21:25;;;;;;;9.53;1.47;;;-1.10;82.40;;;;;;5041397;28;20159;-64
2021/03/05 01:23:51;;;;;;;6.87;2.17;;;-1.10;82.70;;;;;;5058140;28;20041;-64
2021/03/05 01:26:16;;;;;;;12.07;2.90;;;-1.10;82.50;;;;;;5052163;28;20040;-65
2021/03/05 01:28:45;;;;;;;8.27;2.83;;;-1.10;82.60;;;;;;5050914;28;20033;-64
2021/03/05 01:31:13;;;;;;;9.33;2.40;;;-1.10;82.70;;;;;;5050342;28;20412;-65
2021/03/05 01:33:39;;;;;;;9.13;2.53;;;-1.10;82.80;;;;;;5033433;28;20067;-64
2021/03/05 01:36:05;;;;;;;10.73;2.47;;;-1.10;82.70;;;;;;5050316;28;20068;-64
2021/03/05 01:38:31;;;;;;;10.10;2.37;;;-1.10;82.70;;;;;;5051040;28;20029;-64
2021/03/05 01:40:57;;;;;;;8.13;1.60;;;-1.10;82.70;;;;;;5050524;28;20039;-64
2021/03/05 01:43:23;;;;;;;8.90;1.63;;;-1.20;82.90;;;;;;5050147;28;20083;-64
2021/03/05 01:45:48;;;;;;;10.67;2.20;;;-1.20;83.10;;;;;;5051109;28;20032;-64
2021/03/05 01:48:17;;;;;;;8.10;2.13;;;-1.20;83.10;;;;;;5050751;28;20037;-64
2021/03/05 01:50:55;;;;;;;9.63;2.03;;;-1.20;83.20;;;;;;5060475;28;20099;-64
2021/03/05 01:53:21;;;;;;;8.60;1.80;;;-1.20;83.30;;;;;;5059331;28;20044;-64
2021/03/05 01:55:46;;;;;;;7.80;1.60;;;-1.20;83.20;;;;;;5060544;28;20036;-64
2021/03/05 01:58:13;;;;;;;9.43;2.37;;;-1.20;83.30;;;;;;5043227;28;20487;-64
2021/03/05 02:00:54;;;;;;;7.30;1.47;;;-1.20;83.30;;;;;;5059637;28;20029;-64
2021/03/05 02:03:19;;;;;;;9.90;1.70;;;-1.20;83.50;;;;;;5060455;28;20055;-64
2021/03/05 02:05:48;;;;;;;8.97;1.80;;;-1.20;83.60;;;;;;5040962;28;20037;-68
2021/03/05 02:08:14;;;;;;;8.63;1.97;;;-1.30;83.40;;;;;;5059571;28;20079;-64
2021/03/05 02:10:41;;;;;;;12.83;1.93;;;-1.30;83.50;;;;;;5059700;28;20064;-64
2021/03/05 02:13:07;;;;;;;8.03;1.67;;;-1.30;83.50;;;;;;5042941;28;20056;-64
2021/03/05 02:15:34;;;;;;;7.33;2.43;;;-1.30;83.50;;;;;;5059409;28;20041;-64
2021/03/05 02:18:33;;;;;;;6.67;1.60;;;-1.30;83.60;;;;;;5059445;28;20028;-64
2021/03/05 02:21:17;;;;;;;5.53;1.73;;;-1.40;83.60;;;;;;5042925;28;20451;-64
2021/03/05 02:23:52;;;;;;;10.67;1.97;;;-1.40;83.60;;;;;;5060661;28;20124;-64
2021/03/05 02:26:23;;;;;;;10.40;2.20;;;-1.40;83.70;;;;;;5041409;28;20032;-64
2021/03/05 02:29:27;;;;;;;8.97;1.47;;;-1.40;83.80;;;;;;5058896;28;20033;-64
2021/03/05 02:32:02;;;;;;;7.60;2.00;;;-1.50;83.90;;;;;;5058510;28;20405;-64
2021/03/05 02:34:33;;;;;;;7.73;1.70;;;-1.50;83.90;;;;;;5058968;28;20044;-64
2021/03/05 02:37:06;;;;;;;8.43;1.70;;;-1.50;83.90;;;;;;5059724;28;20029;-64
2021/03/05 02:39:51;;;;;;;7.40;1.70;;;-1.50;84.00;;;;;;5058867;28;20033;-64
2021/03/05 02:42:27;;;;;;;8.37;2.07;;;-1.60;84.00;;;;;;5060804;28;20054;-72
2021/03/05 02:45:01;;;;;;;12.40;2.10;;;-1.60;84.00;;;;;;5058619;28;20033;-72
2021/03/05 02:47:31;;;;;;;7.07;1.80;;;-1.60;84.20;;;;;;5040664;28;20047;-72
2021/03/05 02:49:56;;;;;;;11.57;1.92;;;-1.60;84.20;;;;;;5062984;28;20066;-72
2021/03/05 02:52:24;;;;;;;11.07;1.87;;;-1.60;84.70;;;;;;5051649;28;20036;-72
2021/03/05 02:54:56;;;;;;;8.17;1.70;;;-1.60;84.40;;;;;;5070367;28;20473;-72
2021/03/05 02:57:27;;;;;;;7.27;1.80;;;-1.60;84.30;;;;;;5069833;28;20044;-72
2021/03/05 02:59:54;;;;;;;9.15;1.85;;;-1.60;84.30;;;;;;5072139;28;20052;-64
2021/03/05 03:02:25;;;;;;;9.17;1.87;;;-1.70;84.30;;;;;;5055704;28;20040;-64
2021/03/05 03:04:52;;;;;;;11.25;1.67;;;-1.70;84.60;;;;;;5073485;28;20052;-64
2021/03/05 03:07:18;;;;;;;8.60;1.67;;;-1.70;84.70;;;;;;5073800;28;20039;-64
2021/03/05 03:09:44;;;;;;;6.20;1.70;;;-1.70;84.60;;;;;;5073027;28;20094;-64
2021/03/05 03:12:11;;;;;;;8.63;2.20;;;-1.70;84.60;;;;;;5072969;28;20067;-64
2021/03/05 03:14:41;;;;;;;9.37;1.50;;;-1.70;84.60;;;;;;5073571;28;20484;-64
2021/03/05 03:17:09;;;;;;;9.85;2.05;;;-1.70;84.70;;;;;;5055216;28;20032;-64
2021/03/05 03:19:37;;;;;;;9.13;1.50;;;-1.80;84.70;;;;;;5073661;28;20040;-64
2021/03/05 03:22:03;;;;;;;12.67;2.13;;;-1.80;84.80;;;;;;5055145;28;20047;-63
2021/03/05 03:24:31;;;;;;;10.57;1.87;;;-1.80;84.80;;;;;;5073558;28;20048;-64
2021/03/05 03:26:58;;;;;;;8.37;2.00;;;-1.70;84.90;;;;;;5073154;28;20028;-64
2021/03/05 03:29:24;;;;;;;7.40;1.67;;;-1.80;84.90;;;;;;5073251;28;20039;-64
2021/03/05 03:31:49;;;;;;;8.30;2.23;;;-1.80;85.00;;;;;;5055056;28;20075;-64
2021/03/05 03:34:16;;;;;;;9.17;1.80;;;-1.80;85.00;;;;;;5072885;28;20116;-64
2021/03/05 03:36:42;;;;;;;10.17;2.07;;;-1.80;85.00;;;;;;5055424;28;20491;-64
2021/03/05 03:39:10;;;;;;;5.40;1.60;;;-1.80;85.10;;;;;;5072869;28;20037;-64
2021/03/05 03:41:37;;;;;;;10.63;1.87;;;-1.90;85.10;;;;;;5054848;28;20051;-64
2021/03/05 03:44:12;;;;;;;10.60;2.00;;;-1.90;85.20;;;;;;5055706;28;20086;-64
2021/03/05 03:46:45;;;;;;;14.67;2.13;;;-1.90;85.30;;;;;;5072722;28;20446;-64
2021/03/05 03:49:14;;;;;;;8.60;1.90;;;-1.90;85.40;;;;;;5073051;28;20045;-65
2021/03/05 03:51:46;;;;;;;10.57;2.23;;;-1.90;85.40;;;;;;5072317;28;20028;-72
2021/03/05 03:54:15;;;;;;;10.60;2.10;;;-1.90;85.30;;;;;;5055051;28;20032;-72
2021/03/05 03:56:43;;;;;;;9.97;1.97;;;-2.00;85.50;;;;;;5054738;28;20051;-72
2021/03/05 03:59:13;;;;;;;6.10;2.00;;;-2.00;85.70;;;;;;5072974;28;20043;-72
2021/03/05 04:01:42;;;;;;;10.18;2.00;;;-2.00;85.70;;;;;;5072183;28;20045;-72
2021/03/05 04:04:10;;;;;;;6.73;2.13;;;-2.00;85.60;;;;;;5072793;28;20044;-72
2021/03/05 04:06:37;;;;;;;8.20;1.73;;;-2.00;85.70;;;;;;5072869;28;20128;-72
2021/03/05 04:09:03;;;;;;;9.27;2.00;;;-2.00;85.80;;;;;;5044729;28;20037;-64
2021/03/05 04:11:31;;;;;;;8.57;1.90;;;-2.00;85.80;;;;;;5071980;28;20044;-64
2021/03/05 04:13:57;;;;;;;10.67;2.10;;;-2.10;85.70;;;;;;5072244;28;20510;-65
2021/03/05 04:16:23;;;;;;;10.63;2.07;;;-2.10;85.80;;;;;;5054611;28;20123;-64
2021/03/05 04:18:51;;;;;;;8.33;1.70;;;-2.10;85.90;;;;;;5072437;28;20127;-63
2021/03/05 04:21:21;;;;;;;10.03;2.57;;;-2.10;85.90;;;;;;5053843;28;20408;-63
2021/03/05 04:23:47;;;;;;;8.00;2.00;;;-2.10;86.10;;;;;;5038337;28;20048;-64
2021/03/05 04:26:13;;;;;;;10.27;1.90;;;-2.10;86.10;;;;;;5071843;28;20037;-64
2021/03/05 04:28:38;;;;;;;7.67;2.10;;;-2.10;86.20;;;;;;5072382;28;20071;-64
2021/03/05 04:31:04;;;;;;;6.03;1.90;;;-2.10;86.10;;;;;;5053630;28;20047;-65
2021/03/05 04:33:30;;;;;;;8.30;2.00;;;-2.10;86.10;;;;;;5072186;28;20037;-64
2021/03/05 04:35:55;;;;;;;9.83;2.83;;;-2.20;86.20;;;;;;5054258;28;20385;-64
2021/03/05 04:38:21;;;;;;;9.70;2.47;;;-2.20;86.40;;;;;;5053720;28;20063;-64
2021/03/05 04:40:47;;;;;;;10.00;2.13;;;-2.20;86.30;;;;;;5071766;28;20037;-64
2021/03/05 04:43:13;;;;;;;11.50;2.63;;;-2.20;86.30;;;;;;5054001;28;20135;-64
2021/03/05 04:45:39;;;;;;;8.03;2.00;;;-2.20;86.40;;;;;;5071433;28;20064;-64
2021/03/05 04:48:06;;;;;;;8.27;2.10;;;-2.30;86.40;;;;;;5054003;28;20044;-64
2021/03/05 04:50:31;;;;;;;8.33;2.30;;;-2.20;86.50;;;;;;5071126;28;20048;-64
2021/03/05 04:52:57;;;;;;;13.40;3.00;;;-2.30;86.50;;;;;;5053908;28;20120;-64
2021/03/05 04:55:23;;;;;;;11.40;2.80;;;-2.30;86.50;;;;;;5071808;28;20040;-64
2021/03/05 04:57:48;;;;;;;11.37;2.70;;;-2.30;86.60;;;;;;5071372;28;20045;-64
2021/03/05 05:00:14;;;;;;;9.07;2.70;;;-2.30;86.70;;;;;;5053545;28;20093;-64
2021/03/05 05:02:40;;;;;;;10.70;2.20;;;-2.30;86.90;;;;;;5071027;28;20261;-64
2021/03/05 05:05:06;;;;;;;10.30;2.43;;;-2.30;86.80;;;;;;5071513;28;20037;-64
2021/03/05 05:07:32;;;;;;;10.37;2.73;;;-2.30;86.90;;;;;;5053647;28;20036;-64
2021/03/05 05:09:57;;;;;;;9.73;2.70;;;-2.30;87.10;;;;;;5036354;28;20044;-64
2021/03/05 05:12:23;;;;;;;13.30;3.00;;;-2.30;87.00;;;;;;5071333;28;20051;-64
2021/03/05 05:14:49;;;;;;;11.97;2.60;;;-2.30;87.10;;;;;;5071377;28;20102;-64
2021/03/05 05:17:15;;;;;;;12.80;2.80;;;-2.30;87.30;;;;;;5070955;28;20056;-64
2021/03/05 05:19:40;;;;;;;9.77;2.70;;;-2.30;87.40;;;;;;5071591;28;20036;-64
2021/03/05 05:22:06;;;;;;;9.33;2.73;;;-2.30;87.20;;;;;;5070004;28;20033;-64
2021/03/05 05:24:32;;;;;;;11.67;3.30;;;-2.30;87.10;;;;;;5071384;28;20396;-64
2021/03/05 05:26:57;;;;;;;10.17;2.83;;;-2.30;87.10;;;;;;5071648;28;20526;-64
2021/03/05 05:29:23;;;;;;;8.57;2.63;;;-2.30;87.10;;;;;;5070836;28;20048;-64
2021/03/05 05:31:48;;;;;;;9.13;2.47;;;-2.30;87.20;;;;;;5070804;28;20102;-64
2021/03/05 05:34:14;;;;;;;11.13;3.17;;;-2.40;87.20;;;;;;5071328;28;20036;-64
2021/03/05 05:36:40;;;;;;;11.47;3.03;;;-2.40;87.00;;;;;;5052866;28;20037;-64
2021/03/05 05:39:05;;;;;;;9.73;2.80;;;-2.30;87.20;;;;;;5053248;28;20028;-64
2021/03/05 05:41:32;;;;;;;11.63;3.10;;;-2.40;87.20;;;;;;5069949;28;20050;-64
2021/03/05 05:43:58;;;;;;;10.67;3.00;;;-2.40;87.30;;;;;;5071200;28;20532;-64
2021/03/05 05:46:26;;;;;;;10.03;3.20;;;-2.40;87.20;;;;;;5071069;28;20119;-64
2021/03/05 05:48:52;;;;;;;9.97;2.87;;;-2.40;87.30;;;;;;5070596;28;20032;-64
2021/03/05 05:51:21;;;;;;;9.43;3.70;;;-2.40;87.40;;;;;;5052675;28;20093;-64
2021/03/05 05:53:48;;;;;;;14.17;3.67;;;-2.40;88.00;;;;;;5070439;28;20043;-64
2021/03/05 05:56:19;;;;;;;9.03;3.33;;;-2.40;87.50;;;;;;5053023;28;20038;-64
2021/03/05 05:58:45;;;;;;;11.83;3.53;;;-2.40;87.50;;;;;;5036000;28;20640;-65
2021/03/05 06:01:12;;;;;;;11.93;3.53;;;-2.40;87.70;;;;;;5070495;28;20373;-64
2021/03/05 06:03:39;;;;;;;9.43;3.20;;;-2.40;87.60;;;;;;5070946;28;20496;-64
2021/03/05 06:06:06;;;;;;;11.03;3.33;;;-2.40;87.60;;;;;;5070359;28;20400;-64
2021/03/05 06:08:32;;;;;;;10.67;3.13;;;-2.40;87.70;;;;;;5070963;28;20053;-64
2021/03/05 06:10:58;;;;;;;13.17;3.30;;;-2.40;87.90;;;;;;5069989;28;20041;-64
2021/03/05 06:13:25;;;;;;;9.17;3.03;;;-2.40;87.90;;;;;;5052671;28;20044;-64
2021/03/05 06:16:18;;;;;;;11.60;3.57;;;-2.40;88.00;;;;;;5036151;28;20029;-64
2021/03/05 06:18:46;;;;;;;10.30;2.60;;;-2.40;88.10;;;;;;5070484;28;20056;-64
2021/03/05 06:21:12;;;;;;;13.70;3.10;;;-2.30;88.20;;;;;;5070269;28;20488;-64
2021/03/05 06:23:59;;;;;;;7.97;2.80;;;-2.30;88.30;;;;;;5070319;28;20044;-64
2021/03/05 06:26:25;;;;;;;13.03;3.27;;;-2.30;88.30;;;;;;5052672;28;20174;-64
2021/03/05 06:29:21;;;;;;;10.30;3.50;;;-2.30;88.40;;;;;;5052355;28;20125;-64
2021/03/05 06:32:02;;;;;;;10.43;3.40;;;-2.20;88.80;;;;;;5049292;28;20500;-64
2021/03/05 06:34:36;;;;;;;11.80;3.53;;;-2.20;88.50;;;;;;5072122;28;20056;-64
2021/03/05 06:37:06;;;;;;;14.10;3.60;;;-2.10;88.70;;;;;;5074363;28;20444;-64
2021/03/05 06:39:35;;;;;;;9.50;3.10;;;-2.10;88.80;;;;;;5074477;28;20066;-64
2021/03/05 06:42:04;;;;;;;8.97;3.07;;;-2.00;88.80;;;;;;5073535;28;20553;-64
2021/03/05 06:44:31;;;;;;;10.77;3.10;;;-1.90;88.90;;;;;;5074391;28;20041;-64
2021/03/05 06:47:06;;;;;;;10.90;3.23;;;-1.90;88.90;;;;;;5074281;28;20032;-64
2021/03/05 06:49:31;;;;;;;8.73;3.43;;;-1.80;89.10;;;;;;5073916;28;20036;-64
2021/03/05 06:51:57;;;;;;;9.30;3.33;;;-1.80;89.20;;;;;;5056144;28;20033;-71
2021/03/05 06:54:35;;;;;;;15.70;3.10;;;-1.70;89.60;;;;;;5056180;28;20029;-72
2021/03/05 06:57:02;;;;;;;13.07;3.10;;;-1.50;90.30;;;;;;5074180;28;20041;-72
2021/03/05 06:59:36;;;;;;;8.87;2.90;;;-1.10;90.60;;;;;;5073636;28;20116;-71
2021/03/05 07:02:03;;;;;;;7.63;2.90;;;-0.80;90.30;;;;;;5055711;28;20543;-72
2021/03/05 07:04:34;;;;;;;7.77;2.70;;;-0.40;90.60;;;;;;5055577;28;20411;-72
2021/03/05 07:07:02;;;;;;;9.43;2.63;;;0.20;91.10;;;;;;5074040;28;20056;-72
2021/03/05 07:09:33;;;;;;;6.77;2.50;;;1.20;91.90;;;;;;5073857;28;20037;-72
2021/03/05 07:12:00;;;;;;;10.38;2.50;;;2.50;92.90;;;;;;5055478;28;20429;-72
2021/03/05 07:14:31;;;;;;;6.00;2.10;;;3.90;92.90;;;;;;5039179;28;20029;-72
2021/03/05 07:16:58;;;;;;;6.57;2.00;;;5.40;92.20;;;;;;5073469;28;20136;-71
2021/03/05 07:19:27;;;;;;;5.93;1.90;;;6.80;91.40;;;;;;5056051;28;20123;-71
2021/03/05 07:21:53;;;;;;;5.67;1.93;;;8.20;90.00;;;;;;5072967;28;20120;-71
2021/03/05 07:24:22;;;;;;;6.20;2.50;;;9.30;86.60;;;;;;5055891;28;20043;-71
2021/03/05 07:27:04;;;;;;;7.50;2.47;;;10.20;83.30;;;;;;5038918;28;20558;-71
2021/03/05 07:29:33;;;;;;;6.22;2.40;;;10.60;81.50;;;;;;5055105;28;20032;-71
2021/03/05 07:32:04;;;;;;;6.00;2.20;;;10.90;80.10;;;;;;5072569;28;20032;-72
2021/03/05 07:34:32;;;;;;;6.88;2.50;;;10.90;76.80;;;;;;5072844;28;20116;-71
2021/03/05 07:37:00;;;;;;;6.70;2.70;;;10.40;76.10;;;;;;5073245;28;20033;-70
2021/03/05 07:39:38;;;;;;;6.53;2.45;;;9.70;74.70;;;;;;5054335;28;20037;-71
2021/03/05 07:42:07;;;;;;;8.35;2.50;;;8.90;73.80;;;;;;5071645;28;20131;-72
2021/03/05 07:44:39;;;;;;;7.93;2.53;;;8.10;73.90;;;;;;5071748;28;20071;-72
2021/03/05 07:47:12;;;;;;;8.15;2.50;;;7.50;74.70;;;;;;5063617;28;20049;-72
2021/03/05 07:49:39;;;;;;;8.00;2.75;;;7.40;79.20;;;;;;5047834;28;20094;-72
2021/03/05 07:52:06;;;;;;;6.88;2.53;;;8.30;84.10;;;;;;5053071;28;20040;-73
2021/03/05 07:54:41;;;;;;;7.40;2.63;;;9.50;82.20;;;;;;5039585;28;20028;-72
2021/03/05 07:57:07;;;;;;;9.85;3.50;;;10.50;78.30;;;;;;5054577;28;20041;-72
2021/03/05 07:59:46;;;;;;;8.13;3.35;;;11.10;74.70;;;;;;5034533;28;20132;-73
2021/03/05 08:02:12;;;;;;;7.28;2.20;;;11.60;72.20;;;;;;5034026;28;20053;-72
2021/03/05 08:04:55;;;;;;;6.80;2.40;;;11.80;70.60;;;;;;5052801;28;20075;-73
2021/03/05 08:07:29;;;;;;;6.72;2.40;;;11.80;67.90;;;;;;5052270;28;20029;-73
2021/03/05 08:09:56;;;;;;;7.55;2.20;;;11.50;66.50;;;;;;5051594;28;20493;-75
2021/03/05 08:12:45;;;;;;;6.57;2.40;;;10.90;65.00;;;;;;5033388;28;20033;-73
2021/03/05 08:15:10;;;;;;;8.32;2.65;;;10.50;64.40;;;;;;5051785;28;20045;-73
2021/03/05 08:17:44;;;;;;;6.40;2.28;;;10.20;63.20;;;;;;5052361;28;20120;-74
2021/03/05 08:20:36;;;;;;;7.38;1.88;;;10.00;61.70;;;;;;5037848;28;20055;-74
2021/03/05 08:23:02;;;;;;;6.85;1.90;;;9.90;61.90;;;;;;5059162;28;20064;-73
2021/03/05 08:25:29;;;;;;;8.55;2.22;;;10.30;63.60;;;;;;5040445;28;20095;-75
2021/03/05 08:27:59;;;;;;;6.40;2.10;;;11.40;65.30;;;;;;5048187;28;20029;-73
2021/03/05 08:30:34;;;;;;;10.60;2.83;;;12.80;64.10;;;;;;5063739;28;20037;-73
2021/03/05 08:33:07;;;;;;;6.68;2.10;;;14.10;61.40;;;;;;5061828;28;20041;-73
2021/03/05 08:35:34;;;;;;;6.38;1.83;;;14.80;58.90;;;;;;5062097;28;20045;-74
2021/03/05 08:38:12;;;;;;;5.20;1.83;;;14.80;56.90;;;;;;5063129;28;20091;-73
2021/03/05 08:41:05;;;;;;;3.33;1.50;;;14.60;54.90;;;;;;5042569;28;20041;-73
2021/03/05 08:43:36;;;;;;;5.85;1.70;;;15.20;55.40;;;;;;5059143;28;20132;-62
2021/03/05 08:46:05;;;;;;;6.95;2.10;;;16.80;54.10;;;;;;5017355;28;20191;-62
2021/03/05 08:48:35;;;;;;;6.32;1.63;;;18.30;52.80;;;;;;5018871;28;20041;-62
2021/03/05 08:51:19;;;;;;;6.32;1.58;;;19.60;50.50;;;;;;5032080;28;20533;-62
2021/03/05 08:53:48;;;;;;;5.18;1.80;;;20.60;48.60;;;;;;5002670;28;20131;-62
2021/03/05 08:56:20;;;;;;;6.60;1.70;;;21.60;45.80;;;;;;5050013;28;20124;-62
2021/03/05 08:58:58;;;;;;;6.63;1.65;;;22.30;42.20;;;;;;5031385;28;20128;-62
2021/03/05 09:01:30;;;;;;;6.28;1.70;;;23.30;41.30;;;;;;5049634;28;20047;-62
2021/03/05 09:04:15;;;;;;;6.18;1.52;;;24.50;39.50;;;;;;5049917;28;20033;-62
2021/03/05 09:06:50;;;;;;;4.70;1.60;;;25.80;38.40;;;;;;5015316;28;20037;-63
2021/03/05 09:09:19;;;;;;;6.28;1.70;;;26.60;35.40;;;;;;5032431;28;20037;-62
2021/03/05 09:12:03;;;;;;;5.85;1.50;;;27.20;34.30;;;;;;5048652;28;20112;-63
2021/03/05 09:14:29;;;;;;;5.63;1.58;;;27.80;32.50;;;;;;5050231;28;20029;-62
2021/03/05 09:16:59;;;;;;;5.20;1.50;;;28.20;31.00;;;;;;5049499;28;20551;-64
2021/03/05 09:19:37;;;;;;;5.28;1.38;;;28.50;29.60;;;;;;5050242;28;20107;-64
2021/03/05 09:22:08;;;;;;;6.32;1.20;;;28.00;28.60;;;;;;5049488;28;20369;-64
2021/03/05 09:24:56;;;;;;;4.22;1.20;;;27.90;28.50;;;;;;5050056;28;20390;-64
2021/03/05 09:27:33;;;;;;;5.25;1.30;;;28.00;28.20;;;;;;5031686;28;20080;-64
2021/03/05 09:30:20;;;;;;;4.63;1.20;;;28.60;27.50;;;;;;5031665;28;20048;-64
2021/03/05 09:32:51;;;;;;;6.18;1.27;;;29.30;26.60;;;;;;5033166;28;20486;-64
2021/03/05 09:35:28;;;;;;;4.50;1.27;;;29.80;26.30;;;;;;5049105;28;20037;-64
2021/03/05 09:37:55;;;;;;;4.18;1.05;;;30.40;25.90;;;;;;5049658;28;20033;-63
2021/03/05 09:40:25;;;;;;;1.77;0.75;;;30.70;24.90;;;;;;5061223;28;20059;-64
2021/03/05 09:42:53;;;;;;;3.00;0.93;;;30.60;24.40;;;;;;5069105;28;20488;-64
2021/03/05 09:45:41;;;;;;;3.97;0.90;;;31.00;24.60;;;;;;5070211;28;20036;-64
2021/03/05 09:48:31;;;;;;;3.20;1.00;;;31.70;23.80;;;;;;5069980;28;20032;-64
2021/03/05 09:51:02;;;;;;;4.10;0.90;;;32.10;23.20;;;;;;5068125;28;20052;-64
2021/03/05 09:53:31;;;;;;;4.82;1.30;;;32.50;23.30;;;;;;5066924;28;20044;-64
2021/03/05 09:56:00;;;;;;;2.83;1.17;;;32.70;22.50;;;;;;5047963;28;20029;-64
2021/03/05 09:58:25;;;;;;;3.28;0.93;;;32.90;22.40;;;;;;5015413;28;20044;-64
2021/03/05 10:00:53;;;;;;;2.53;0.80;;;33.30;22.40;;;;;;5031132;28;20436;-64
2021/03/05 10:03:19;;;;;;;3.65;0.90;;;33.70;21.80;;;;;;5049473;28;20091;-64
2021/03/05 10:05:45;;;;;;;3.25;0.80;;;33.80;21.80;;;;;;5051147;28;20132;-63
2021/03/05 10:08:27;;;;;;;2.40;0.98;;;33.90;20.90;;;;;;5069848;28;20127;-65
2021/03/05 10:11:06;;;;;;;3.08;1.00;;;33.70;20.40;;;;;;5056782;28;20079;-63
2021/03/05 10:13:58;;;;;;;3.93;1.10;;;33.30;20.40;;;;;;5053264;28;20048;-64
2021/03/05 10:16:28;;;;;;;4.30;0.90;;;32.30;20.20;;;;;;5048865;28;20040;-62
2021/03/05 10:19:01;;;;;;;3.03;0.90;;;30.90;19.60;;;;;;5053088;28;20052;-63
2021/03/05 10:21:28;;;;;;;2.03;0.70;;;29.20;19.80;;;;;;5051250;28;20043;-63
2021/03/05 10:23:54;;;;;;;2.72;0.73;;;27.90;19.90;;;;;;5056996;28;20400;-62
2021/03/05 10:26:27;;;;;;;2.25;0.70;;;26.90;19.90;;;;;;5073401;28;20047;-62
2021/03/05 10:29:19;;;;;;;3.78;1.10;;;26.30;19.80;;;;;;5073166;28;20115;-61
2021/03/05 10:31:49;;;;;;;3.35;0.88;;;25.30;19.60;;;;;;5067579;28;20052;-61
2021/03/05 10:34:21;;;;;;;1.88;0.70;;;24.00;19.40;;;;;;5055517;28;20175;-62
2021/03/05 10:36:48;;;;;;;2.78;0.90;;;22.40;19.90;;;;;;5073036;28;20041;-63
2021/03/05 10:39:14;;;;;;;4.55;1.00;;;21.10;20.50;;;;;;5073653;28;20032;-61
2021/03/05 10:41:40;;;;;;;3.10;0.90;;;20.30;20.90;;;;;;5066657;28;20033;-61
2021/03/05 10:44:06;;;;;;;2.20;0.80;;;19.60;21.20;;;;;;5067648;28;20082;-61
2021/03/05 10:46:32;;;;;;;2.53;0.80;;;19.20;21.60;;;;;;5073202;28;20032;-61
2021/03/05 10:48:58;;;;;;;1.60;0.85;;;19.00;21.80;;;;;;5038345;28;20036;-61
2021/03/05 10:51:23;;;;;;;1.60;0.93;;;19.00;22.00;;;;;;5054430;28;20040;-61
2021/03/05 10:53:49;;;;;;;4.22;1.27;;;19.30;22.00;;;;;;5073346;28;20090;-61
2021/03/05 10:56:16;;;;;;;2.25;0.93;;;19.40;21.80;;;;;;5072296;28;20040;-61
2021/03/05 10:58:42;;;;;;;2.75;0.85;;;19.20;21.70;;;;;;5072984;28;20424;-61
2021/03/05 11:01:08;;;;;;;2.63;0.82;;;18.90;22.10;;;;;;5071717;28;20037;-62
2021/03/05 11:03:33;;;;;;;4.07;0.77;;;18.70;22.20;;;;;;5038541;28;20380;-61
2021/03/05 11:05:59;;;;;;;3.35;0.80;;;18.40;22.40;;;;;;5073000;28;20055;-61
2021/03/05 11:08:25;;;;;;;1.73;0.70;;;18.30;22.70;;;;;;5072457;28;20044;-61
2021/03/05 11:10:50;;;;;;;5.50;0.90;;;18.40;22.90;;;;;;5072024;28;20496;-61
2021/03/05 11:13:16;;;;;;;3.20;0.70;;;18.50;23.00;;;;;;5072730;28;20041;-61
2021/03/05 11:15:42;;;;;;;4.53;0.90;;;18.70;23.10;;;;;;5054595;28;20033;-61
2021/03/05 11:18:08;;;;;;;2.22;0.80;;;19.00;22.80;;;;;;5072712;28;20063;-61
2021/03/05 11:20:33;;;;;;;2.80;0.80;;;19.00;22.40;;;;;;5052246;28;20032;-61
2021/03/05 11:22:59;;;;;;;4.47;1.48;;;18.70;22.40;;;;;;5053986;28;20036;-61
2021/03/05 11:25:25;;;;;;;4.05;1.45;;;18.50;22.50;;;;;;5071509;28;20386;-61
2021/03/05 11:27:51;;;;;;;2.33;0.98;;;18.60;22.90;;;;;;5071453;28;20083;-61
2021/03/05 11:30:17;;;;;;;3.17;0.80;;;18.80;23.00;;;;;;5069189;28;20049;-60
2021/03/05 11:32:43;;;;;;;1.92;0.90;;;19.10;22.70;;;;;;5065439;28;20488;-61
2021/03/05 11:35:10;;;;;;;5.30;1.10;;;19.30;22.40;;;;;;5042633;28;20043;-61
2021/03/05 11:37:36;;;;;;;3.40;1.00;;;18.80;21.80;;;;;;5052755;28;20043;-61
2021/03/05 11:40:02;;;;;;;3.83;1.20;;;17.60;21.80;;;;;;5033763;28;20049;-62
2021/03/05 11:42:28;;;;;;;4.45;1.00;;;16.10;22.50;;;;;;5051852;28;20041;-61
2021/03/05 11:44:53;;;;;;;2.85;1.00;;;14.70;23.50;;;;;;5052655;28;20487;-61
2021/03/05 11:47:19;;;;;;;3.45;1.00;;;13.70;24.30;;;;;;5052551;28;20056;-61
2021/03/05 11:49:45;;;;;;;4.30;1.08;;;12.80;25.10;;;;;;5035051;28;20067;-61
2021/03/05 11:52:11;;;;;;;3.15;1.20;;;12.30;25.90;;;;;;5051627;28;20489;-61
2021/03/05 11:54:37;;;;;;;5.40;1.05;;;12.10;26.60;;;;;;5035315;28;20036;-61
2021/03/05 11:57:03;;;;;;;3.50;1.10;;;12.00;27.10;;;;;;5052661;28;20532;-61
2021/03/05 11:59:30;;;;;;;2.25;0.90;;;12.30;27.40;;;;;;5052343;28;20033;-61
2021/03/05 12:01:56;;;;;;;4.40;0.90;;;12.60;27.70;;;;;;5051783;28;20061;-61
2021/03/05 12:04:22;;;;;;;4.88;1.13;;;13.20;27.80;;;;;;5052376;28;20656;-61
2021/03/05 12:06:48;;;;;;;3.20;0.90;;;14.30;28.20;;;;;;5034582;28;20043;-61
2021/03/05 12:09:13;;;;;;;3.35;0.85;;;16.10;28.40;;;;;;5051949;28;20037;-61
2021/03/05 12:11:39;;;;;;;4.00;1.10;;;17.90;28.00;;;;;;5032900;28;20049;-61
2021/03/05 12:14:05;;;;;;;2.85;0.88;;;19.40;26.90;;;;;;5052012;28;20045;-61
2021/03/05 12:16:31;;;;;;;2.65;0.80;;;20.50;25.70;;;;;;5051515;28;20090;-61
2021/03/05 12:18:57;;;;;;;5.22;0.95;;;21.10;24.40;;;;;;5051503;28;20120;-61
2021/03/05 12:21:23;;;;;;;1.85;0.73;;;21.40;24.00;;;;;;5050719;28;20452;-61
2021/03/05 12:23:48;;;;;;;3.13;0.95;;;21.80;23.40;;;;;;5051100;28;20033;-62
2021/03/05 12:26:14;;;;;;;2.75;0.80;;;22.10;23.10;;;;;;5059626;28;20709;-62
2021/03/05 12:28:41;;;;;;;3.80;1.00;;;22.40;23.00;;;;;;5064673;28;20068;-60
2021/03/05 12:31:07;;;;;;;3.25;1.00;;;22.40;22.30;;;;;;5055025;28;20505;-61
2021/03/05 12:33:32;;;;;;;4.28;1.10;;;21.90;21.90;;;;;;5055929;28;20029;-61
2021/03/05 12:35:58;;;;;;;3.53;1.15;;;21.30;21.70;;;;;;5053311;28;20095;-61
2021/03/05 12:38:24;;;;;;;3.55;1.13;;;20.90;22.10;;;;;;5053355;28;20124;-61
2021/03/05 12:40:49;;;;;;;3.90;1.20;;;20.90;22.40;;;;;;5052601;28;20082;-62
2021/03/05 12:43:15;;;;;;;3.03;1.00;;;20.90;23.00;;;;;;5067550;28;20044;-61
2021/03/05 12:45:41;;;;;;;4.93;1.10;;;20.80;23.60;;;;;;5068816;28;20036;-61
2021/03/05 12:48:07;;;;;;;5.22;1.20;;;21.10;23.80;;;;;;5069243;28;20036;-62
2021/03/05 12:50:33;;;;;;;4.35;1.23;;;21.70;23.40;;;;;;5062313;28;20039;-61
2021/03/05 12:52:58;;;;;;;3.20;0.85;;;22.30;22.90;;;;;;5062170;28;20032;-61
2021/03/05 12:55:24;;;;;;;3.03;1.13;;;22.60;22.30;;;;;;5050724;28;20114;-62